X  Kiinni Metar Aviation säätiedot     EHAM Amsterdam Airport Schiphol
Lämpötila
45°F Lämpötila
41°F Kastepiste
87% Kosteus



Tuuli
6 MPH
10 KM/T
3 M/S
5 KTS



290°
LPL
Nykyiset olosuhteet

Puolipilvistä Puolipilvistä
Paine 1011.85 (hPa) - 29.88 (inHg)
Näkyvyys 6 (maili) - 9.7 (km)
Lentokenttä
Lentokentän koodi EHAM

Sijainti: Amsterdam Airport Schiphol
Etäisyys: 26 (mi)

Metar:
EHAM 040825Z 29005KT 9999 FEW016 SCT018 07/05 Q1012 NOSIG

Aika: 04-03-2024 09:25 CET